createdAt,value
2023-04-16T00:00:43.929Z,2.75
2023-04-16T00:03:14.799Z,2.97
2023-04-16T00:05:45.747Z,3.13
2023-04-16T00:08:19.326Z,2.80
2023-04-16T00:10:50.424Z,2.80
2023-04-16T00:13:21.254Z,3.30
2023-04-16T00:15:52.164Z,3.92
2023-04-16T00:18:23.144Z,3.58
2023-04-16T00:20:54.948Z,3.67
2023-04-16T00:23:28.415Z,3.70
2023-04-16T00:26:00.461Z,4.20
2023-04-16T00:28:31.391Z,2.97
2023-04-16T00:31:04.329Z,3.33
2023-04-16T00:33:35.150Z,3.65
2023-04-16T00:36:06.443Z,4.03
2023-04-16T00:38:40.169Z,4.45
2023-04-16T00:41:10.952Z,4.45
2023-04-16T00:43:41.913Z,5.78
2023-04-16T00:46:13.081Z,4.43
2023-04-16T00:48:44.849Z,4.97
2023-04-16T00:51:15.755Z,4.00
2023-04-16T00:53:50.834Z,4.72
2023-04-16T00:56:22.519Z,4.03
2023-04-16T00:58:53.806Z,5.65
2023-04-16T01:01:24.630Z,6.55
2023-04-16T01:03:55.650Z,5.53
2023-04-16T01:06:27.088Z,5.50
2023-04-16T01:09:01.058Z,4.70
2023-04-16T01:11:32.347Z,3.80
2023-04-16T01:14:03.252Z,3.40
2023-04-16T01:16:34.163Z,3.88
2023-04-16T01:19:04.953Z,3.55
2023-04-16T01:21:38.505Z,3.60
2023-04-16T01:24:09.732Z,4.47
2023-04-16T01:26:40.650Z,4.20
2023-04-16T01:29:11.632Z,5.32
2023-04-16T01:31:42.463Z,4.35
2023-04-16T01:34:26.697Z,4.22
2023-04-16T01:37:00.206Z,4.30
2023-04-16T01:39:31.724Z,4.57
2023-04-16T01:42:02.638Z,4.32
2023-04-16T01:44:33.889Z,4.53
2023-04-16T01:47:04.972Z,4.70
2023-04-16T01:49:36.335Z,4.82
2023-04-16T01:52:09.775Z,5.10
2023-04-16T01:54:40.660Z,4.57
2023-04-16T01:57:11.531Z,4.70
2023-04-16T01:59:42.329Z,5.05
2023-04-16T02:02:18.302Z,4.75
2023-04-16T02:04:49.974Z,5.37
2023-04-16T02:07:23.395Z,5.28
2023-04-16T02:09:54.510Z,4.80
2023-04-16T02:12:25.756Z,4.47
2023-04-16T02:14:56.592Z,5.07
2023-04-16T02:17:29.929Z,4.20
2023-04-16T02:20:15.128Z,4.68
2023-04-16T02:22:56.352Z,4.65
2023-04-16T02:25:28.339Z,4.78
2023-04-16T02:28:01.491Z,5.30
2023-04-16T02:30:41.036Z,4.47
2023-04-16T02:33:14.700Z,4.93
2023-04-16T02:35:56.336Z,5.32
2023-04-16T02:38:29.964Z,5.55
2023-04-16T02:41:01.385Z,4.53
2023-04-16T02:43:32.843Z,4.90
2023-04-16T02:46:03.759Z,4.53
2023-04-16T02:48:34.777Z,4.22
2023-04-16T02:51:05.674Z,6.68
2023-04-16T02:53:39.164Z,6.60
2023-04-16T02:56:10.872Z,6.00
2023-04-16T02:58:42.014Z,6.50
2023-04-16T03:01:13.087Z,4.88
2023-04-16T03:03:43.988Z,3.90
2023-04-16T03:06:14.879Z,3.70
2023-04-16T03:08:48.316Z,4.85
2023-04-16T03:11:20.182Z,4.47
2023-04-16T03:13:52.424Z,4.50
2023-04-16T03:16:23.353Z,4.45
2023-04-16T03:18:54.499Z,4.70
2023-04-16T03:21:25.393Z,4.65
2023-04-16T03:23:59.178Z,4.13
2023-04-16T03:26:30.012Z,5.85
2023-04-16T03:29:02.525Z,4.97
2023-04-16T03:31:35.871Z,5.35
2023-04-16T03:34:06.984Z,5.32
2023-04-16T03:36:38.691Z,4.35
2023-04-16T03:39:12.283Z,4.35
2023-04-16T03:41:43.368Z,4.18
2023-04-16T03:44:14.226Z,4.20
2023-04-16T03:46:45.552Z,4.70
2023-04-16T03:49:16.627Z,4.35
2023-04-16T03:51:47.727Z,4.15
2023-04-16T03:54:22.771Z,4.15
2023-04-16T03:57:01.388Z,3.88
2023-04-16T03:59:32.718Z,4.20
2023-04-16T04:02:04.505Z,4.10
2023-04-16T04:04:36.183Z,4.80
2023-04-16T04:07:07.326Z,4.28
2023-04-16T04:09:40.726Z,4.15
2023-04-16T04:12:13.021Z,4.80
2023-04-16T04:14:45.502Z,4.32
2023-04-16T04:17:16.270Z,6.53
2023-04-16T04:19:59.888Z,4.97
2023-04-16T04:22:32.294Z,5.97
2023-04-16T04:25:05.834Z,5.85
2023-04-16T04:27:37.194Z,5.05
2023-04-16T04:30:10.774Z,5.90
2023-04-16T04:32:42.414Z,7.32
2023-04-16T04:35:13.913Z,7.53
2023-04-16T04:37:45.763Z,6.38
2023-04-16T04:40:24.080Z,6.50
2023-04-16T04:42:56.643Z,5.90
2023-04-16T04:45:31.211Z,6.78
2023-04-16T04:48:02.809Z,5.45
2023-04-16T04:50:37.168Z,4.82
2023-04-16T04:53:10.523Z,5.43
2023-04-16T04:55:44.833Z,4.43
2023-04-16T04:58:15.669Z,4.70
2023-04-16T05:00:47.023Z,4.47
2023-04-16T05:03:23.742Z,4.35
2023-04-16T05:05:54.161Z,4.05
2023-04-16T05:08:24.551Z,4.68
2023-04-16T05:10:57.429Z,3.70
2023-04-16T05:13:27.717Z,4.13
2023-04-16T05:15:58.068Z,4.60
2023-04-16T05:18:28.407Z,4.80
2023-04-16T05:20:58.857Z,4.10
2023-04-16T05:23:29.218Z,3.85
2023-04-16T05:26:02.173Z,4.10
2023-04-16T05:28:34.602Z,3.90
2023-04-16T05:31:05.736Z,3.88
2023-04-16T05:33:36.178Z,4.28
2023-04-16T05:36:06.827Z,3.88
2023-04-16T05:38:37.117Z,4.10
2023-04-16T05:41:09.992Z,4.68
2023-04-16T05:43:40.689Z,5.03
2023-04-16T05:46:11.137Z,4.40
2023-04-16T05:48:41.508Z,4.32
2023-04-16T05:51:11.786Z,3.80
2023-04-16T05:53:42.236Z,4.28
2023-04-16T05:56:15.188Z,3.83
2023-04-16T05:58:45.508Z,3.67
2023-04-16T06:01:15.813Z,5.30
2023-04-16T06:03:46.327Z,3.58
2023-04-16T06:06:16.780Z,4.00
2023-04-16T06:08:47.144Z,4.65
2023-04-16T06:11:20.094Z,4.05
2023-04-16T06:13:50.389Z,4.13
2023-04-16T06:16:20.765Z,4.47
2023-04-16T06:18:51.219Z,4.20
2023-04-16T06:21:21.552Z,4.13
2023-04-16T06:23:51.889Z,4.28
2023-04-16T06:26:24.844Z,4.38
2023-04-16T06:28:55.107Z,4.70
2023-04-16T06:31:25.652Z,4.15
2023-04-16T06:33:56.099Z,4.78
2023-04-16T06:36:27.725Z,5.97
2023-04-16T06:38:58.043Z,4.82
2023-04-16T06:41:31.038Z,5.40
2023-04-16T06:44:01.651Z,4.72
2023-04-16T06:46:32.255Z,4.80
2023-04-16T06:49:02.852Z,5.60
2023-04-16T06:51:33.210Z,7.22
2023-04-16T06:54:03.637Z,7.32
2023-04-16T06:56:37.660Z,6.22
2023-04-16T06:59:08.340Z,5.88
2023-04-16T07:01:39.301Z,6.40
2023-04-16T07:04:09.913Z,5.55
2023-04-16T07:06:40.320Z,5.55
2023-04-16T07:09:11.181Z,5.80
2023-04-16T07:11:44.782Z,6.00
2023-04-16T07:14:15.193Z,5.72
2023-04-16T07:16:45.650Z,6.22
2023-04-16T07:19:16.141Z,6.30
2023-04-16T07:21:46.550Z,6.15
2023-04-16T07:24:17.329Z,6.93
2023-04-16T07:26:50.258Z,6.45
2023-04-16T07:29:20.720Z,6.28
2023-04-16T07:31:51.240Z,5.90
2023-04-16T07:34:21.618Z,6.10
2023-04-16T07:36:51.909Z,6.43
2023-04-16T07:39:22.345Z,6.68
2023-04-16T07:41:55.534Z,6.07
2023-04-16T07:44:25.890Z,6.18
2023-04-16T07:46:56.220Z,7.97
2023-04-16T07:49:26.648Z,6.97
2023-04-16T07:51:57.011Z,6.55
2023-04-16T07:54:28.928Z,6.70
2023-04-16T07:57:02.166Z,6.32
2023-04-16T07:59:32.617Z,6.57
2023-04-16T08:02:03.028Z,6.47
2023-04-16T08:04:33.583Z,6.78
2023-04-16T08:07:04.050Z,6.25
2023-04-16T08:09:35.020Z,6.55
2023-04-16T08:12:08.402Z,7.03
2023-04-16T08:14:38.705Z,6.15
2023-04-16T08:17:09.121Z,7.03
2023-04-16T08:19:39.506Z,6.78
2023-04-16T08:22:09.858Z,6.55
2023-04-16T08:24:40.127Z,6.25
2023-04-16T08:27:19.179Z,6.45
2023-04-16T08:29:50.482Z,4.82
2023-04-16T08:32:21.093Z,5.90
2023-04-16T08:34:52.896Z,6.13
2023-04-16T08:37:23.282Z,5.32
2023-04-16T08:39:53.756Z,5.25
2023-04-16T08:42:34.299Z,5.20
2023-04-16T08:45:11.406Z,5.53
2023-04-16T08:47:43.034Z,5.28
2023-04-16T08:50:19.047Z,5.15
2023-04-16T08:52:55.044Z,4.90
2023-04-16T08:55:29.140Z,5.40
2023-04-16T08:58:04.206Z,5.00
2023-04-16T09:00:36.435Z,5.63
2023-04-16T09:03:07.781Z,5.07
2023-04-16T09:05:38.995Z,5.75
2023-04-16T09:08:09.781Z,5.28
2023-04-16T09:10:40.142Z,5.65
2023-04-16T09:13:15.975Z,6.15
2023-04-16T09:15:47.587Z,5.53
2023-04-16T09:18:18.128Z,5.90
2023-04-16T09:20:48.897Z,4.40
2023-04-16T09:23:19.327Z,4.32
2023-04-16T09:25:49.663Z,4.90
2023-04-16T09:28:46.920Z,4.70
2023-04-16T09:31:18.520Z,3.93
2023-04-16T09:34:05.187Z,4.93
2023-04-16T09:36:36.125Z,3.73
2023-04-16T09:39:07.154Z,4.78
2023-04-16T09:41:39.812Z,4.47
2023-04-16T09:44:12.760Z,5.13
2023-04-16T09:46:44.940Z,5.65
2023-04-16T09:49:18.799Z,5.18
2023-04-16T09:51:54.784Z,5.38
2023-04-16T09:54:25.318Z,5.03
2023-04-16T09:57:00.051Z,5.38
2023-04-16T09:59:34.308Z,4.72
2023-04-16T10:02:15.600Z,4.32
2023-04-16T10:04:51.678Z,3.72
2023-04-16T10:07:22.954Z,4.72
2023-04-16T10:09:53.630Z,3.60
2023-04-16T10:12:23.986Z,4.90
2023-04-16T10:14:56.976Z,5.05
2023-04-16T10:17:30.232Z,4.22
2023-04-16T10:20:01.837Z,4.50
2023-04-16T10:22:32.476Z,5.93
2023-04-16T10:25:03.324Z,4.75
2023-04-16T10:27:34.496Z,4.93
2023-04-16T10:30:10.733Z,4.55
2023-04-16T10:32:42.451Z,5.22
2023-04-16T10:35:17.960Z,4.80
2023-04-16T10:37:49.140Z,4.85
2023-04-16T10:40:27.929Z,4.82
2023-04-16T10:43:00.327Z,4.10
2023-04-16T10:45:41.432Z,4.45
2023-04-16T10:48:15.092Z,4.40
2023-04-16T10:50:46.215Z,4.28
2023-04-16T10:53:27.523Z,3.30
2023-04-16T10:56:16.833Z,2.97
2023-04-16T10:58:47.740Z,2.67
2023-04-16T11:01:21.275Z,3.67
2023-04-16T11:03:52.562Z,3.88
2023-04-16T11:06:29.213Z,3.28
2023-04-16T11:09:00.123Z,3.47
2023-04-16T11:11:40.504Z,3.50
2023-04-16T11:14:13.891Z,4.60
2023-04-16T11:16:47.431Z,3.80
2023-04-16T11:19:20.628Z,3.80
2023-04-16T11:21:52.354Z,4.25
2023-04-16T11:24:24.626Z,4.78
2023-04-16T11:26:56.984Z,4.50
2023-04-16T11:29:28.130Z,4.40
2023-04-16T11:32:01.765Z,4.20
2023-04-16T11:34:33.481Z,4.57
2023-04-16T11:37:04.420Z,4.07
2023-04-16T11:39:35.304Z,5.50
2023-04-16T11:42:06.396Z,5.25
2023-04-16T11:44:37.337Z,4.60
2023-04-16T11:47:14.100Z,3.80
2023-04-16T11:49:44.984Z,4.63
2023-04-16T11:52:15.930Z,4.55
2023-04-16T11:54:53.510Z,5.85
2023-04-16T11:57:31.686Z,4.35
2023-04-16T12:00:08.549Z,4.53
2023-04-16T12:02:48.686Z,3.92
2023-04-16T12:05:35.314Z,3.47
2023-04-16T12:08:07.912Z,4.30
2023-04-16T12:10:41.199Z,4.45
2023-04-16T12:13:15.980Z,3.83
2023-04-16T12:15:50.941Z,3.58
2023-04-16T12:18:27.220Z,4.60
2023-04-16T12:20:58.504Z,4.28
2023-04-16T12:23:31.952Z,3.67
2023-04-16T12:26:10.981Z,4.13
2023-04-16T12:28:42.324Z,4.50
2023-04-16T12:31:14.933Z,3.80
2023-04-16T12:34:04.364Z,3.33
2023-04-16T12:36:35.198Z,3.20
2023-04-16T12:39:06.456Z,3.90
2023-04-16T12:41:41.422Z,2.88
2023-04-16T12:44:15.007Z,3.78
2023-04-16T12:46:47.297Z,3.28
2023-04-16T12:49:20.262Z,3.95
2023-04-16T12:51:50.605Z,3.10
2023-04-16T12:54:20.982Z,2.83
2023-04-16T12:56:51.341Z,3.58
2023-04-16T12:59:21.583Z,3.08
2023-04-16T13:01:51.949Z,3.30
2023-04-16T13:04:26.006Z,3.67
2023-04-16T13:06:56.427Z,2.28
2023-04-16T13:09:27.222Z,2.25
2023-04-16T13:11:57.529Z,2.60
2023-04-16T13:14:27.924Z,3.25
2023-04-16T13:16:58.292Z,3.70
2023-04-16T13:19:31.287Z,3.78
2023-04-16T13:22:02.053Z,2.65
2023-04-16T13:24:33.623Z,2.00
2023-04-16T13:27:03.990Z,2.10
2023-04-16T13:29:36.708Z,1.90
2023-04-16T13:32:07.658Z,2.13
2023-04-16T13:34:40.578Z,1.60
2023-04-16T13:37:11.124Z,1.65
2023-04-16T13:39:41.515Z,1.90
2023-04-16T13:42:11.787Z,1.88
2023-04-16T13:44:42.033Z,2.45
2023-04-16T13:47:12.333Z,3.63
2023-04-16T13:49:45.376Z,1.75
2023-04-16T13:52:15.832Z,2.50
2023-04-16T13:54:46.194Z,1.50
2023-04-16T13:57:22.929Z,2.35
2023-04-16T13:59:53.316Z,2.60
2023-04-16T14:02:24.362Z,3.58
2023-04-16T14:04:57.473Z,2.55
2023-04-16T14:07:27.887Z,3.90
2023-04-16T14:09:58.163Z,2.10
2023-04-16T14:12:28.585Z,3.08
2023-04-16T14:14:59.296Z,3.45
2023-04-16T14:17:29.721Z,2.50
2023-04-16T14:20:02.726Z,2.22
2023-04-16T14:22:33.200Z,2.85
2023-04-16T14:25:04.233Z,3.15
2023-04-16T14:27:35.237Z,2.13
2023-04-16T14:30:05.611Z,2.92
2023-04-16T14:32:36.397Z,1.48
2023-04-16T14:35:10.517Z,1.65
2023-04-16T14:37:41.678Z,1.42
2023-04-16T14:40:13.030Z,1.75
2023-04-16T14:42:43.349Z,2.55
2023-04-16T14:45:13.790Z,3.20
2023-04-16T14:47:47.816Z,3.00
2023-04-16T14:50:20.901Z,3.13
2023-04-16T14:52:51.246Z,2.45
2023-04-16T14:55:21.802Z,2.00
2023-04-16T14:57:52.086Z,2.00
2023-04-16T15:00:23.052Z,2.72
2023-04-16T15:02:53.431Z,2.45
2023-04-16T15:05:26.528Z,3.10
2023-04-16T15:07:56.889Z,3.13
2023-04-16T15:10:27.260Z,2.80
2023-04-16T15:12:57.616Z,2.38
2023-04-16T15:15:27.959Z,1.95
2023-04-16T15:17:58.471Z,1.45
2023-04-16T15:20:31.680Z,2.55
2023-04-16T15:23:02.077Z,2.38
2023-04-16T15:25:32.573Z,2.25
2023-04-16T15:28:02.878Z,3.35
2023-04-16T15:30:34.251Z,2.65
2023-04-16T15:33:04.594Z,2.63
2023-04-16T15:35:41.426Z,2.40
2023-04-16T15:38:11.870Z,2.83
2023-04-16T15:40:42.554Z,1.98
2023-04-16T15:43:13.045Z,2.67
2023-04-16T15:45:43.637Z,2.83
2023-04-16T15:48:14.489Z,2.42
2023-04-16T15:50:47.531Z,2.17
2023-04-16T15:53:18.026Z,2.60
2023-04-16T15:55:50.051Z,2.33
2023-04-16T15:58:21.060Z,2.60
2023-04-16T16:00:52.600Z,2.10
2023-04-16T16:03:23.008Z,2.67
2023-04-16T16:05:59.271Z,2.70
2023-04-16T16:08:34.224Z,2.60
2023-04-16T16:11:04.692Z,2.80
2023-04-16T16:13:36.096Z,2.47
2023-04-16T16:16:06.831Z,2.35
2023-04-16T16:18:37.139Z,2.65
2023-04-16T16:21:10.093Z,2.70
2023-04-16T16:23:40.440Z,2.78
2023-04-16T16:26:10.969Z,2.38
2023-04-16T16:28:43.923Z,2.40
2023-04-16T16:31:14.795Z,2.50
2023-04-16T16:33:45.266Z,2.67
2023-04-16T16:36:18.424Z,1.88
2023-04-16T16:38:49.082Z,2.00
2023-04-16T16:41:19.415Z,1.90
2023-04-16T16:43:50.445Z,2.33
2023-04-16T16:46:20.886Z,1.83
2023-04-16T16:48:51.385Z,1.70
2023-04-16T16:51:24.314Z,2.10
2023-04-16T16:53:54.614Z,3.17
2023-04-16T16:56:24.984Z,1.77
2023-04-16T16:58:55.277Z,1.80
2023-04-16T17:01:25.755Z,2.20
2023-04-16T17:03:56.356Z,1.90
2023-04-16T17:06:29.629Z,1.90
2023-04-16T17:08:59.968Z,2.28
2023-04-16T17:11:30.451Z,1.88
2023-04-16T17:14:00.733Z,2.33
2023-04-16T17:16:31.109Z,2.38
2023-04-16T17:19:01.785Z,2.00
2023-04-16T17:21:35.410Z,2.20
2023-04-16T17:24:05.838Z,1.75
2023-04-16T17:26:36.288Z,2.05
2023-04-16T17:29:06.608Z,1.77
2023-04-16T17:31:37.053Z,2.25
2023-04-16T17:34:07.754Z,2.22
2023-04-16T17:36:41.111Z,1.92
2023-04-16T17:39:11.666Z,2.38
2023-04-16T17:41:42.072Z,1.75
2023-04-16T17:44:12.992Z,2.35
2023-04-16T17:46:43.490Z,1.63
2023-04-16T17:49:13.849Z,2.13
2023-04-16T17:51:46.756Z,1.40
2023-04-16T17:54:17.169Z,1.95
2023-04-16T17:56:47.472Z,1.42
2023-04-16T17:59:17.909Z,2.15
2023-04-16T18:01:49.706Z,2.00
2023-04-16T18:04:20.278Z,1.73
2023-04-16T18:06:53.448Z,2.20
2023-04-16T18:09:23.753Z,1.80
2023-04-16T18:11:54.079Z,1.90
2023-04-16T18:14:24.438Z,1.90
2023-04-16T18:16:54.751Z,1.45
2023-04-16T18:19:25.100Z,1.98
2023-04-16T18:21:58.788Z,2.15
2023-04-16T18:24:29.371Z,1.88
2023-04-16T18:26:59.769Z,1.98
2023-04-16T18:29:30.121Z,2.30
2023-04-16T18:32:03.727Z,2.22
2023-04-16T18:34:34.878Z,1.85
2023-04-16T18:37:08.046Z,1.67
2023-04-16T18:39:38.730Z,2.00
2023-04-16T18:42:09.189Z,1.83
2023-04-16T18:44:39.497Z,2.10
2023-04-16T18:47:10.029Z,1.75
2023-04-16T18:49:40.333Z,1.90
2023-04-16T18:52:13.313Z,2.00
2023-04-16T18:54:43.734Z,2.10
2023-04-16T18:57:14.266Z,2.42
2023-04-16T18:59:44.705Z,6.18
2023-04-16T19:02:15.666Z,5.07
2023-04-16T19:04:46.760Z,9.15
2023-04-16T19:07:20.292Z,10.48
2023-04-16T19:09:51.142Z,6.05
2023-04-16T19:12:21.912Z,2.63
2023-04-16T19:14:52.861Z,1.50
2023-04-16T19:17:25.297Z,1.42
2023-04-16T19:19:56.305Z,1.42
2023-04-16T19:22:29.829Z,1.30
2023-04-16T19:25:00.849Z,2.00
2023-04-16T19:27:32.659Z,2.45
2023-04-16T19:30:03.845Z,1.48
2023-04-16T19:32:35.062Z,2.10
2023-04-16T19:35:06.530Z,1.30
2023-04-16T19:37:40.155Z,1.98
2023-04-16T19:40:12.424Z,2.42
2023-04-16T19:42:45.564Z,2.40
2023-04-16T19:45:17.802Z,2.13
2023-04-16T19:47:51.460Z,2.30
2023-04-16T19:50:22.405Z,2.47
2023-04-16T19:52:55.779Z,2.53
2023-04-16T19:55:27.131Z,1.90
2023-04-16T19:57:58.143Z,2.72
2023-04-16T20:00:28.988Z,2.17
2023-04-16T20:02:59.905Z,2.47
2023-04-16T20:05:31.206Z,1.52
2023-04-16T20:08:04.810Z,2.70
2023-04-16T20:10:35.561Z,2.45
2023-04-16T20:13:10.329Z,1.42
2023-04-16T20:15:41.357Z,2.38
2023-04-16T20:18:13.149Z,2.97
2023-04-16T20:20:44.127Z,3.00
2023-04-16T20:23:17.655Z,3.08
2023-04-16T20:25:49.500Z,2.55
2023-04-16T20:28:21.732Z,3.15
2023-04-16T20:30:53.015Z,4.00
2023-04-16T20:33:24.428Z,3.50
2023-04-16T20:35:56.522Z,3.70
2023-04-16T20:38:32.631Z,4.22
2023-04-16T20:41:10.865Z,3.47
2023-04-16T20:43:43.370Z,3.58
2023-04-16T20:46:15.247Z,4.50
2023-04-16T20:48:46.263Z,2.35
2023-04-16T20:51:17.671Z,2.70
2023-04-16T20:53:52.374Z,4.07
2023-04-16T20:56:23.221Z,4.00
2023-04-16T20:58:54.308Z,4.05
2023-04-16T21:01:25.136Z,3.85
2023-04-16T21:03:56.226Z,4.28
2023-04-16T21:06:27.288Z,4.63
2023-04-16T21:09:00.654Z,5.10
2023-04-16T21:11:33.704Z,4.75
2023-04-16T21:14:04.742Z,4.78
2023-04-16T21:16:36.107Z,5.05
2023-04-16T21:19:09.139Z,5.28
2023-04-16T21:21:40.614Z,4.63
2023-04-16T21:24:14.098Z,4.65
2023-04-16T21:26:45.033Z,5.05
2023-04-16T21:29:16.310Z,4.18
2023-04-16T21:31:47.195Z,5.05
2023-04-16T21:34:18.012Z,5.15
2023-04-16T21:36:48.937Z,5.72
2023-04-16T21:39:22.614Z,5.05
2023-04-16T21:41:53.467Z,4.63
2023-04-16T21:44:24.287Z,4.57
2023-04-16T21:46:55.051Z,4.53
2023-04-16T21:49:25.939Z,4.68
2023-04-16T21:51:59.378Z,4.25
2023-04-16T21:54:32.806Z,4.18
2023-04-16T21:57:03.629Z,4.90
2023-04-16T21:59:34.507Z,4.70
2023-04-16T22:02:05.520Z,4.55
2023-04-16T22:04:40.338Z,4.43
2023-04-16T22:07:12.018Z,4.38
2023-04-16T22:09:45.533Z,4.75
2023-04-16T22:12:16.297Z,4.97
2023-04-16T22:14:59.534Z,4.60
2023-04-16T22:17:34.362Z,4.25
2023-04-16T22:20:06.632Z,4.15
2023-04-16T22:22:37.497Z,4.35
2023-04-16T22:25:12.144Z,3.85
2023-04-16T22:27:42.980Z,3.90
2023-04-16T22:30:15.017Z,4.30
2023-04-16T22:32:45.946Z,4.35
2023-04-16T22:35:17.082Z,4.95
2023-04-16T22:37:47.919Z,4.30
2023-04-16T22:40:21.469Z,4.43
2023-04-16T22:42:52.939Z,4.53
2023-04-16T22:45:23.654Z,4.60
2023-04-16T22:47:54.638Z,5.25
2023-04-16T22:50:25.792Z,4.63
2023-04-16T22:52:56.548Z,4.63
2023-04-16T22:55:30.045Z,4.70
2023-04-16T22:58:00.868Z,4.65
2023-04-16T23:00:31.731Z,4.85
2023-04-16T23:03:02.866Z,4.50
2023-04-16T23:05:34.866Z,4.07
2023-04-16T23:08:05.713Z,4.15
2023-04-16T23:10:39.116Z,3.92
2023-04-16T23:13:09.961Z,5.07
2023-04-16T23:15:40.841Z,4.72
2023-04-16T23:18:12.255Z,4.10
2023-04-16T23:20:43.203Z,3.95
2023-04-16T23:23:14.008Z,4.22
2023-04-16T23:25:47.637Z,3.90
2023-04-16T23:28:18.401Z,4.43
2023-04-16T23:30:49.232Z,4.43
2023-04-16T23:33:20.141Z,4.65
2023-04-16T23:35:50.991Z,4.20
2023-04-16T23:38:21.817Z,4.20
2023-04-16T23:40:55.314Z,4.78
2023-04-16T23:43:26.222Z,4.55
2023-04-16T23:45:57.029Z,4.07
2023-04-16T23:48:28.297Z,4.38
2023-04-16T23:50:59.019Z,4.90
2023-04-16T23:53:29.785Z,3.88
2023-04-16T23:56:03.250Z,4.10
2023-04-16T23:58:34.048Z,3.80
